Time;durP1;ratioP1;P1;durP2;ratioP2;P2;SDS_P1;SDS_P2;PMS_P1;PMS_P2;Temp;Humidity;BMP_temperature;BMP_pressure;BME280_temperature;BME280_humidity;BME280_pressure;Samples;Min_cycle;Max_cycle;Signal;HPM_P1;HPM_P2
2022/09/16 00:00:18;;;;;;;2.78;1.10;;;;;;;;;;613302;231;26629;-60
2022/09/16 00:02:47;;;;;;;1.20;1.02;;;;;;;;;;615546;231;26601;-60
2022/09/16 00:05:15;;;;;;;1.80;1.20;;;;;;;;;;612819;234;26834;-61
2022/09/16 00:07:44;;;;;;;2.35;1.50;;;;;;;;;;615073;229;26615;-60
2022/09/16 00:10:14;;;;;;;2.10;1.10;;;;;;;;;;616984;231;26637;-60
2022/09/16 00:12:43;;;;;;;2.35;1.40;;;;;;;;;;614237;233;26815;-60
2022/09/16 00:15:12;;;;;;;1.73;0.90;;;;;;;;;;613943;233;26584;-60
2022/09/16 00:17:41;;;;;;;1.40;1.30;;;;;;;;;;616222;233;26790;-60
2022/09/16 00:20:09;;;;;;;2.08;1.10;;;;;;;;;;616256;233;26524;-60
2022/09/16 00:22:38;;;;;;;1.92;1.10;;;;;;;;;;616198;232;26589;-60
2022/09/16 00:25:07;;;;;;;1.95;1.00;;;;;;;;;;616046;228;26555;-59
2022/09/16 00:27:36;;;;;;;2.50;1.10;;;;;;;;;;617741;231;26638;-58
2022/09/16 00:30:06;;;;;;;2.40;1.15;;;;;;;;;;619214;230;26809;-61
2022/09/16 00:32:34;;;;;;;2.35;1.40;;;;;;;;;;614689;231;26599;-60
2022/09/16 00:35:03;;;;;;;2.15;1.20;;;;;;;;;;615417;230;26822;-60
2022/09/16 00:37:32;;;;;;;2.05;1.10;;;;;;;;;;613462;233;26626;-60
2022/09/16 00:40:01;;;;;;;1.70;1.08;;;;;;;;;;615191;230;27134;-59
2022/09/16 00:42:30;;;;;;;1.85;1.20;;;;;;;;;;616606;230;26850;-59
2022/09/16 00:44:59;;;;;;;1.58;0.90;;;;;;;;;;616621;231;26623;-59
2022/09/16 00:47:29;;;;;;;2.33;1.00;;;;;;;;;;621051;231;26969;-59
2022/09/16 00:50:00;;;;;;;1.10;0.90;;;;;;;;;;613457;231;26654;-64
2022/09/16 00:52:28;;;;;;;1.95;1.25;;;;;;;;;;612324;235;26652;-61
2022/09/16 00:54:57;;;;;;;3.90;1.58;;;;;;;;;;612422;234;26624;-61
2022/09/16 00:57:26;;;;;;;1.30;1.00;;;;;;;;;;612497;228;26616;-61
2022/09/16 00:59:55;;;;;;;1.37;1.10;;;;;;;;;;612467;235;26632;-60
2022/09/16 01:02:23;;;;;;;1.65;0.90;;;;;;;;;;620711;231;26894;-61
2022/09/16 01:04:55;;;;;;;1.37;1.10;;;;;;;;;;621183;231;26556;-62
2022/09/16 01:07:26;;;;;;;1.45;1.10;;;;;;;;;;621312;231;26835;-60
2022/09/16 01:09:55;;;;;;;1.42;1.08;;;;;;;;;;621305;231;26601;-61
2022/09/16 01:12:24;;;;;;;2.05;1.10;;;;;;;;;;619338;231;27048;-60
2022/09/16 01:14:53;;;;;;;2.70;0.90;;;;;;;;;;614299;231;26594;-60
2022/09/16 01:17:23;;;;;;;0.90;0.90;;;;;;;;;;614237;234;26871;-61
2022/09/16 01:19:54;;;;;;;1.08;1.00;;;;;;;;;;617461;231;26778;-60
2022/09/16 01:22:25;;;;;;;1.10;1.00;;;;;;;;;;620750;231;26854;-61
2022/09/16 01:24:57;;;;;;;2.15;0.90;;;;;;;;;;621858;231;26525;-61
2022/09/16 01:27:31;;;;;;;2.08;1.00;;;;;;;;;;621193;231;26565;-61
2022/09/16 01:30:03;;;;;;;1.75;1.15;;;;;;;;;;621631;231;26635;-61
2022/09/16 01:32:49;;;;;;;1.60;1.12;;;;;;;;;;619226;231;26808;-60
2022/09/16 01:35:23;;;;;;;1.12;1.00;;;;;;;;;;611840;233;26652;-60
2022/09/16 01:38:12;;;;;;;2.25;1.20;;;;;;;;;;612780;231;26535;-60
2022/09/16 01:40:41;;;;;;;1.92;1.10;;;;;;;;;;611955;231;26563;-61
2022/09/16 01:43:10;;;;;;;1.65;0.80;;;;;;;;;;617379;231;26823;-60
2022/09/16 01:45:42;;;;;;;1.23;1.08;;;;;;;;;;612386;234;26784;-61
2022/09/16 01:48:14;;;;;;;1.65;1.12;;;;;;;;;;613859;233;26541;-61
2022/09/16 01:50:44;;;;;;;0.98;0.98;;;;;;;;;;612560;233;26576;-60
2022/09/16 01:53:16;;;;;;;0.80;0.80;;;;;;;;;;613071;231;26833;-60
2022/09/16 01:55:48;;;;;;;1.27;0.93;;;;;;;;;;615480;234;26572;-61
2022/09/16 01:58:17;;;;;;;1.12;0.98;;;;;;;;;;617307;231;26577;-61
2022/09/16 02:00:45;;;;;;;1.25;1.10;;;;;;;;;;619982;231;26640;-61
2022/09/16 02:03:14;;;;;;;1.25;1.00;;;;;;;;;;616470;231;27146;-61
2022/09/16 02:05:53;;;;;;;2.15;1.30;;;;;;;;;;623490;231;26607;-60
2022/09/16 02:08:37;;;;;;;1.67;1.05;;;;;;;;;;620256;231;26642;-61
2022/09/16 02:11:05;;;;;;;2.08;0.98;;;;;;;;;;615121;231;26583;-61
2022/09/16 02:13:35;;;;;;;1.10;0.90;;;;;;;;;;622838;231;26592;-61
2022/09/16 02:16:05;;;;;;;1.77;0.90;;;;;;;;;;617377;231;26578;-61
2022/09/16 02:18:34;;;;;;;1.15;1.08;;;;;;;;;;620281;230;26615;-61
2022/09/16 02:21:03;;;;;;;2.05;1.10;;;;;;;;;;618405;231;26581;-61
2022/09/16 02:23:32;;;;;;;1.17;1.10;;;;;;;;;;621609;231;26638;-61
2022/09/16 02:26:01;;;;;;;2.60;1.20;;;;;;;;;;620654;231;26631;-61
2022/09/16 02:28:30;;;;;;;1.60;1.00;;;;;;;;;;620728;231;26648;-61
2022/09/16 02:30:59;;;;;;;1.65;1.00;;;;;;;;;;616771;231;26591;-61
2022/09/16 02:33:28;;;;;;;1.33;0.98;;;;;;;;;;617304;231;26577;-61
2022/09/16 02:35:57;;;;;;;1.83;1.10;;;;;;;;;;619974;231;26565;-61
2022/09/16 02:38:26;;;;;;;3.15;1.10;;;;;;;;;;617975;231;26819;-61
2022/09/16 02:40:55;;;;;;;1.33;1.23;;;;;;;;;;616874;230;26616;-61
2022/09/16 02:43:24;;;;;;;1.17;1.00;;;;;;;;;;613951;231;26663;-61
2022/09/16 02:45:59;;;;;;;1.20;1.10;;;;;;;;;;618793;231;26881;-61
2022/09/16 02:48:28;;;;;;;1.27;0.93;;;;;;;;;;616046;230;26610;-61
2022/09/16 02:50:57;;;;;;;1.62;0.90;;;;;;;;;;615156;233;26637;-60
2022/09/16 02:53:41;;;;;;;0.90;0.90;;;;;;;;;;612231;234;26833;-60
2022/09/16 02:56:11;;;;;;;0.88;0.88;;;;;;;;;;612727;231;26789;-60
2022/09/16 02:58:40;;;;;;;1.58;0.90;;;;;;;;;;612729;231;26809;-60
2022/09/16 03:01:09;;;;;;;1.00;1.00;;;;;;;;;;616460;231;26581;-60
2022/09/16 03:03:38;;;;;;;0.90;0.90;;;;;;;;;;620252;230;26916;-60
2022/09/16 03:06:09;;;;;;;1.92;1.10;;;;;;;;;;621093;231;26572;-60
2022/09/16 03:08:38;;;;;;;1.23;1.12;;;;;;;;;;620146;231;26603;-60
2022/09/16 03:11:08;;;;;;;1.17;0.95;;;;;;;;;;619665;231;26803;-61
2022/09/16 03:13:39;;;;;;;2.12;1.08;;;;;;;;;;612078;235;27009;-60
2022/09/16 03:16:20;;;;;;;1.77;1.10;;;;;;;;;;614703;231;26574;-60
2022/09/16 03:18:49;;;;;;;1.15;1.00;;;;;;;;;;615494;231;26852;-60
2022/09/16 03:21:24;;;;;;;2.00;1.30;;;;;;;;;;614213;231;26628;-60
2022/09/16 03:23:56;;;;;;;1.12;1.00;;;;;;;;;;613171;231;26825;-60
2022/09/16 03:26:28;;;;;;;1.52;1.00;;;;;;;;;;620256;231;26619;-60
2022/09/16 03:29:03;;;;;;;1.27;0.95;;;;;;;;;;616871;231;26575;-60
2022/09/16 03:31:32;;;;;;;1.85;1.10;;;;;;;;;;614578;231;26567;-60
2022/09/16 03:34:03;;;;;;;1.10;1.00;;;;;;;;;;619682;231;26825;-61
2022/09/16 03:36:32;;;;;;;1.25;0.90;;;;;;;;;;615337;231;26575;-61
2022/09/16 03:39:01;;;;;;;1.20;1.10;;;;;;;;;;619926;228;26814;-61
2022/09/16 03:41:30;;;;;;;1.95;1.08;;;;;;;;;;614343;231;26632;-61
2022/09/16 03:43:59;;;;;;;2.05;1.08;;;;;;;;;;613993;233;26983;-61
2022/09/16 03:46:28;;;;;;;1.42;1.23;;;;;;;;;;614380;228;26563;-60
2022/09/16 03:48:56;;;;;;;1.00;0.80;;;;;;;;;;621470;230;26567;-61
2022/09/16 03:51:25;;;;;;;1.42;1.00;;;;;;;;;;620012;230;26609;-60
2022/09/16 03:53:54;;;;;;;0.95;0.80;;;;;;;;;;621693;231;26675;-60
2022/09/16 03:56:23;;;;;;;1.05;0.95;;;;;;;;;;614881;231;26611;-60
2022/09/16 03:58:52;;;;;;;2.33;1.20;;;;;;;;;;614356;230;26604;-60
2022/09/16 04:01:21;;;;;;;1.20;0.95;;;;;;;;;;615753;231;26802;-60
2022/09/16 04:03:51;;;;;;;3.80;1.30;;;;;;;;;;613371;233;26627;-60
2022/09/16 04:06:18;;;;;;;1.10;1.00;;;;;;;;;;613262;231;26844;-60
2022/09/16 04:08:49;;;;;;;1.10;1.00;;;;;;;;;;612791;234;26552;-60
2022/09/16 04:11:16;;;;;;;2.83;1.08;;;;;;;;;;614308;230;26538;-60
2022/09/16 04:13:45;;;;;;;1.65;1.20;;;;;;;;;;615975;232;26629;-60
2022/09/16 04:16:14;;;;;;;1.45;1.20;;;;;;;;;;615049;233;26617;-60
2022/09/16 04:18:43;;;;;;;1.08;1.05;;;;;;;;;;612271;234;26598;-60
2022/09/16 04:21:11;;;;;;;1.02;1.02;;;;;;;;;;614131;231;26618;-60
2022/09/16 04:23:40;;;;;;;1.87;1.10;;;;;;;;;;621065;231;26654;-60
2022/09/16 04:26:09;;;;;;;1.33;1.00;;;;;;;;;;621101;231;26831;-60
2022/09/16 04:28:38;;;;;;;1.50;1.17;;;;;;;;;;620464;231;26567;-60
2022/09/16 04:31:07;;;;;;;1.17;1.10;;;;;;;;;;619355;231;26829;-60
2022/09/16 04:33:36;;;;;;;2.33;1.12;;;;;;;;;;612305;234;26628;-60
2022/09/16 04:36:07;;;;;;;4.45;1.20;;;;;;;;;;613447;231;26800;-60
2022/09/16 04:38:35;;;;;;;1.52;1.00;;;;;;;;;;617194;231;26542;-59
2022/09/16 04:41:07;;;;;;;0.90;0.90;;;;;;;;;;614036;231;26567;-60
2022/09/16 04:43:36;;;;;;;0.80;0.80;;;;;;;;;;617778;231;26614;-59
2022/09/16 04:46:05;;;;;;;1.20;1.10;;;;;;;;;;613632;234;26584;-59
2022/09/16 04:48:34;;;;;;;1.00;0.90;;;;;;;;;;615642;231;26807;-59
2022/09/16 04:51:03;;;;;;;0.88;0.88;;;;;;;;;;614419;233;26542;-59
2022/09/16 04:53:32;;;;;;;1.60;1.00;;;;;;;;;;617496;230;26628;-59
2022/09/16 04:56:16;;;;;;;1.90;1.00;;;;;;;;;;621814;230;27257;-59
2022/09/16 04:58:46;;;;;;;1.10;1.00;;;;;;;;;;612573;231;26558;-59
2022/09/16 05:01:15;;;;;;;1.95;1.17;;;;;;;;;;615224;233;26559;-59
2022/09/16 05:03:44;;;;;;;1.90;0.93;;;;;;;;;;614159;231;26861;-59
2022/09/16 05:06:14;;;;;;;1.20;1.10;;;;;;;;;;613101;233;26627;-59
2022/09/16 05:08:43;;;;;;;2.45;1.23;;;;;;;;;;616270;231;26549;-59
2022/09/16 05:11:12;;;;;;;2.40;1.10;;;;;;;;;;618551;230;26624;-59
2022/09/16 05:13:41;;;;;;;1.92;1.30;;;;;;;;;;615895;233;26648;-59
2022/09/16 05:16:10;;;;;;;1.62;1.00;;;;;;;;;;618178;230;26534;-60
2022/09/16 05:18:39;;;;;;;1.70;0.93;;;;;;;;;;615665;230;26817;-59
2022/09/16 05:21:07;;;;;;;1.00;0.90;;;;;;;;;;621866;230;26572;-59
2022/09/16 05:23:36;;;;;;;0.88;0.82;;;;;;;;;;620395;230;26977;-59
2022/09/16 05:26:06;;;;;;;1.10;1.00;;;;;;;;;;615078;230;26609;-59
2022/09/16 05:28:35;;;;;;;1.70;1.20;;;;;;;;;;621956;230;26804;-59
2022/09/16 05:31:09;;;;;;;1.77;1.00;;;;;;;;;;615569;229;26568;-59
2022/09/16 05:33:38;;;;;;;0.93;0.82;;;;;;;;;;615375;233;26599;-60
2022/09/16 05:36:07;;;;;;;4.12;1.25;;;;;;;;;;614176;231;26788;-60
2022/09/16 05:38:36;;;;;;;2.22;1.20;;;;;;;;;;613543;231;26632;-60
2022/09/16 05:41:05;;;;;;;2.53;1.23;;;;;;;;;;618978;231;26698;-61
2022/09/16 05:43:34;;;;;;;1.30;1.17;;;;;;;;;;614877;231;26665;-60
2022/09/16 05:46:02;;;;;;;1.00;1.00;;;;;;;;;;617861;231;26583;-60
2022/09/16 05:48:31;;;;;;;1.75;1.27;;;;;;;;;;612806;231;26851;-60
2022/09/16 05:51:00;;;;;;;2.20;1.10;;;;;;;;;;616100;231;26592;-60
2022/09/16 05:53:29;;;;;;;1.40;1.12;;;;;;;;;;620998;231;26966;-60
2022/09/16 05:55:59;;;;;;;1.70;1.05;;;;;;;;;;615232;231;26576;-60
2022/09/16 05:58:27;;;;;;;1.45;1.00;;;;;;;;;;612659;234;26559;-60
2022/09/16 06:00:57;;;;;;;1.67;1.12;;;;;;;;;;614648;231;26653;-60
2022/09/16 06:03:26;;;;;;;1.42;1.00;;;;;;;;;;614595;231;26604;-60
2022/09/16 06:05:59;;;;;;;1.83;1.10;;;;;;;;;;614570;231;26583;-60
2022/09/16 06:08:27;;;;;;;1.35;0.95;;;;;;;;;;616368;231;26578;-60
2022/09/16 06:10:56;;;;;;;1.77;1.10;;;;;;;;;;621990;230;26629;-60
2022/09/16 06:13:25;;;;;;;0.90;0.90;;;;;;;;;;624010;230;26664;-60
2022/09/16 06:15:54;;;;;;;1.10;1.00;;;;;;;;;;615669;233;26574;-60
2022/09/16 06:18:23;;;;;;;2.42;1.17;;;;;;;;;;616200;232;26553;-60
2022/09/16 06:20:52;;;;;;;1.37;1.00;;;;;;;;;;619822;230;27001;-65
2022/09/16 06:23:21;;;;;;;1.92;1.00;;;;;;;;;;613830;230;26636;-65
2022/09/16 06:25:49;;;;;;;1.45;1.00;;;;;;;;;;619652;227;26814;-65
2022/09/16 06:28:18;;;;;;;1.55;1.10;;;;;;;;;;623231;230;26610;-66
2022/09/16 06:30:47;;;;;;;1.23;0.90;;;;;;;;;;620077;230;26642;-65
2022/09/16 06:33:16;;;;;;;1.10;1.00;;;;;;;;;;615652;231;26765;-65
2022/09/16 06:35:45;;;;;;;1.33;1.10;;;;;;;;;;617557;230;26620;-65
2022/09/16 06:38:14;;;;;;;1.40;1.02;;;;;;;;;;622134;230;26926;-65
2022/09/16 06:40:42;;;;;;;2.15;0.80;;;;;;;;;;614079;230;26578;-65
2022/09/16 06:43:11;;;;;;;1.17;1.08;;;;;;;;;;619666;231;26918;-65
2022/09/16 06:45:40;;;;;;;1.48;1.10;;;;;;;;;;620323;231;26651;-65
2022/09/16 06:48:09;;;;;;;0.80;0.80;;;;;;;;;;618591;231;26631;-65
2022/09/16 06:50:38;;;;;;;2.20;1.20;;;;;;;;;;612483;234;26629;-65
2022/09/16 06:53:07;;;;;;;2.65;1.25;;;;;;;;;;612367;234;26663;-65
2022/09/16 06:55:35;;;;;;;1.77;1.10;;;;;;;;;;613049;231;26638;-65
2022/09/16 06:58:05;;;;;;;1.87;1.10;;;;;;;;;;616489;231;26608;-66
2022/09/16 07:00:34;;;;;;;2.08;1.10;;;;;;;;;;617825;231;26538;-66
2022/09/16 07:03:03;;;;;;;1.20;1.10;;;;;;;;;;615635;234;26834;-66
2022/09/16 07:05:32;;;;;;;1.52;1.00;;;;;;;;;;612842;234;26572;-66
2022/09/16 07:08:01;;;;;;;1.33;1.15;;;;;;;;;;612463;234;26585;-65
2022/09/16 07:10:30;;;;;;;3.25;1.23;;;;;;;;;;616392;231;26881;-65
2022/09/16 07:12:59;;;;;;;3.28;1.20;;;;;;;;;;619181;231;26639;-65
2022/09/16 07:15:28;;;;;;;0.82;0.82;;;;;;;;;;613067;230;26865;-66
2022/09/16 07:17:56;;;;;;;1.67;1.00;;;;;;;;;;614348;233;26642;-65
2022/09/16 07:20:25;;;;;;;1.77;1.00;;;;;;;;;;613550;231;26578;-65
2022/09/16 07:22:54;;;;;;;2.70;1.10;;;;;;;;;;613337;233;26578;-65
2022/09/16 07:25:23;;;;;;;1.33;0.98;;;;;;;;;;618197;231;26571;-65
2022/09/16 07:27:52;;;;;;;3.70;1.27;;;;;;;;;;618431;231;26839;-65
2022/09/16 07:30:21;;;;;;;1.75;1.10;;;;;;;;;;618202;230;26585;-65
2022/09/16 07:32:50;;;;;;;2.25;1.27;;;;;;;;;;619435;231;27276;-65
2022/09/16 07:35:18;;;;;;;1.12;1.00;;;;;;;;;;615470;233;26620;-65
2022/09/16 07:37:47;;;;;;;1.85;1.00;;;;;;;;;;615431;231;26784;-66
2022/09/16 07:40:16;;;;;;;1.23;0.95;;;;;;;;;;614611;231;26574;-66
2022/09/16 07:42:45;;;;;;;1.85;1.17;;;;;;;;;;612763;233;26619;-66
2022/09/16 07:45:14;;;;;;;2.60;1.20;;;;;;;;;;616025;231;26892;-66
2022/09/16 07:47:43;;;;;;;1.50;1.10;;;;;;;;;;621456;231;26570;-65
2022/09/16 07:50:11;;;;;;;0.80;0.80;;;;;;;;;;616870;231;26565;-65
2022/09/16 07:52:40;;;;;;;1.00;1.00;;;;;;;;;;614478;231;26622;-65
2022/09/16 07:55:09;;;;;;;1.73;1.15;;;;;;;;;;612776;231;26644;-60
2022/09/16 07:57:38;;;;;;;1.40;1.12;;;;;;;;;;620937;231;26813;-60
2022/09/16 08:00:08;;;;;;;2.28;1.23;;;;;;;;;;622131;231;26578;-60
2022/09/16 08:02:36;;;;;;;1.12;0.93;;;;;;;;;;615191;231;26606;-59
2022/09/16 08:05:05;;;;;;;1.98;1.23;;;;;;;;;;614500;231;26565;-61
2022/09/16 08:07:34;;;;;;;25.98;2.00;;;;;;;;;;614547;234;26600;-61
2022/09/16 08:10:03;;;;;;;3.30;1.25;;;;;;;;;;621883;231;26620;-59
2022/09/16 08:12:34;;;;;;;2.15;1.00;;;;;;;;;;615024;234;26596;-60
2022/09/16 08:15:01;;;;;;;1.77;1.12;;;;;;;;;;616771;231;26834;-61
2022/09/16 08:17:30;;;;;;;1.95;1.10;;;;;;;;;;621216;231;26636;-61
2022/09/16 08:19:59;;;;;;;3.22;1.17;;;;;;;;;;617990;231;27281;-61
2022/09/16 08:22:28;;;;;;;1.67;1.00;;;;;;;;;;612898;231;26637;-62
2022/09/16 08:24:57;;;;;;;2.53;1.12;;;;;;;;;;615842;228;26564;-62
2022/09/16 08:27:26;;;;;;;2.22;1.23;;;;;;;;;;621543;229;26834;-60
2022/09/16 08:29:54;;;;;;;4.10;1.05;;;;;;;;;;622264;227;26575;-61
2022/09/16 08:32:23;;;;;;;3.53;1.30;;;;;;;;;;619972;231;26827;-61
2022/09/16 08:34:52;;;;;;;1.62;1.10;;;;;;;;;;613734;231;26543;-60
2022/09/16 08:37:21;;;;;;;9.30;4.03;;;;;;;;;;614201;230;26632;-60
2022/09/16 08:39:50;;;;;;;22.13;13.30;;;;;;;;;;613235;233;26590;-61
2022/09/16 08:42:22;;;;;;;20.20;12.52;;;;;;;;;;613204;231;26632;-61
2022/09/16 08:44:51;;;;;;;12.68;8.23;;;;;;;;;;614159;230;26627;-60
2022/09/16 08:47:22;;;;;;;12.25;7.10;;;;;;;;;;614330;230;26568;-60
2022/09/16 08:49:53;;;;;;;8.32;5.07;;;;;;;;;;613980;231;26870;-61
2022/09/16 08:52:37;;;;;;;12.77;5.62;;;;;;;;;;614751;233;26597;-61
2022/09/16 08:55:07;;;;;;;10.52;5.10;;;;;;;;;;615135;230;26612;-61
2022/09/16 08:57:38;;;;;;;7.72;4.65;;;;;;;;;;612941;233;26548;-61
2022/09/16 09:00:08;;;;;;;7.22;4.30;;;;;;;;;;613153;231;26562;-61
2022/09/16 09:02:36;;;;;;;7.97;4.70;;;;;;;;;;616485;230;26584;-61
2022/09/16 09:05:05;;;;;;;12.63;4.30;;;;;;;;;;616684;230;26847;-64
2022/09/16 09:07:35;;;;;;;10.95;3.80;;;;;;;;;;612974;234;26567;-61
2022/09/16 09:10:20;;;;;;;24.70;4.95;;;;;;;;;;614041;231;26567;-61
2022/09/16 09:12:49;;;;;;;8.52;3.30;;;;;;;;;;611138;230;27206;-61
2022/09/16 09:15:19;;;;;;;7.87;3.58;;;;;;;;;;616177;231;26571;-62
2022/09/16 09:17:47;;;;;;;8.00;3.20;;;;;;;;;;615422;231;27217;-62
2022/09/16 09:20:22;;;;;;;6.45;3.15;;;;;;;;;;615578;231;26831;-62
2022/09/16 09:22:52;;;;;;;9.65;3.05;;;;;;;;;;615628;231;26840;-62
2022/09/16 09:25:20;;;;;;;5.82;3.22;;;;;;;;;;614796;231;26636;-62
2022/09/16 09:27:50;;;;;;;4.55;3.20;;;;;;;;;;613384;234;26799;-61
2022/09/16 09:30:20;;;;;;;5.05;2.60;;;;;;;;;;613477;231;26805;-62
2022/09/16 09:32:50;;;;;;;5.85;2.80;;;;;;;;;;613653;231;26606;-61
2022/09/16 09:35:19;;;;;;;3.45;2.25;;;;;;;;;;613385;231;26582;-62
2022/09/16 09:37:54;;;;;;;5.32;2.62;;;;;;;;;;613959;231;26528;-61
2022/09/16 09:40:23;;;;;;;4.70;2.35;;;;;;;;;;618422;231;26836;-62
2022/09/16 09:42:52;;;;;;;5.95;2.42;;;;;;;;;;614464;231;26636;-60
2022/09/16 09:45:23;;;;;;;3.37;1.95;;;;;;;;;;618343;230;26847;-61
2022/09/16 09:47:50;;;;;;;6.22;2.53;;;;;;;;;;614743;230;26541;-61
2022/09/16 09:50:23;;;;;;;4.32;2.05;;;;;;;;;;615583;231;26789;-62
2022/09/16 09:52:53;;;;;;;4.10;2.17;;;;;;;;;;615078;231;26852;-61
2022/09/16 09:55:24;;;;;;;3.25;1.80;;;;;;;;;;616418;230;26581;-62
2022/09/16 09:57:57;;;;;;;5.68;2.12;;;;;;;;;;616139;232;26610;-62
2022/09/16 10:00:26;;;;;;;6.47;2.37;;;;;;;;;;617730;231;26531;-61
2022/09/16 10:02:54;;;;;;;4.97;2.35;;;;;;;;;;621509;231;26580;-60
2022/09/16 10:05:23;;;;;;;2.10;1.80;;;;;;;;;;616862;231;26534;-60
2022/09/16 10:07:52;;;;;;;5.00;1.90;;;;;;;;;;614725;230;26774;-60
2022/09/16 10:10:21;;;;;;;4.37;2.17;;;;;;;;;;618813;230;26523;-61
2022/09/16 10:12:50;;;;;;;4.28;1.77;;;;;;;;;;615036;233;26829;-62
2022/09/16 10:15:19;;;;;;;3.22;1.67;;;;;;;;;;614458;231;26562;-61
2022/09/16 10:17:48;;;;;;;5.90;2.33;;;;;;;;;;619066;231;26629;-61
2022/09/16 10:20:33;;;;;;;6.07;2.10;;;;;;;;;;618375;231;26601;-62
2022/09/16 10:23:02;;;;;;;6.37;2.08;;;;;;;;;;611795;231;26662;-62
2022/09/16 10:25:31;;;;;;;3.42;1.50;;;;;;;;;;620546;230;26799;-61
2022/09/16 10:28:00;;;;;;;4.53;1.58;;;;;;;;;;616206;231;26581;-61
2022/09/16 10:30:28;;;;;;;5.15;1.98;;;;;;;;;;616228;231;27032;-63
2022/09/16 10:32:58;;;;;;;4.03;1.70;;;;;;;;;;614941;233;26568;-63
2022/09/16 10:35:27;;;;;;;3.75;1.73;;;;;;;;;;614279;231;26607;-63
2022/09/16 10:37:56;;;;;;;4.45;2.12;;;;;;;;;;613628;231;26585;-62
2022/09/16 10:40:25;;;;;;;6.05;1.92;;;;;;;;;;616701;231;26555;-60
2022/09/16 10:42:53;;;;;;;2.75;1.90;;;;;;;;;;617974;231;26640;-61
2022/09/16 10:45:22;;;;;;;4.75;1.73;;;;;;;;;;617951;231;26598;-62
2022/09/16 10:47:51;;;;;;;4.22;2.25;;;;;;;;;;615348;234;26525;-60
2022/09/16 10:50:20;;;;;;;4.20;1.80;;;;;;;;;;615115;231;26568;-60
2022/09/16 10:52:49;;;;;;;5.35;2.12;;;;;;;;;;618017;231;26885;-59
2022/09/16 10:55:22;;;;;;;4.95;2.12;;;;;;;;;;618641;231;26598;-59
2022/09/16 10:57:51;;;;;;;3.72;2.42;;;;;;;;;;614651;231;26575;-59
2022/09/16 11:00:22;;;;;;;3.25;1.87;;;;;;;;;;614267;231;26523;-63
2022/09/16 11:02:51;;;;;;;9.52;2.08;;;;;;;;;;615217;230;26647;-60
2022/09/16 11:05:37;;;;;;;52.13;10.35;;;;;;;;;;613597;233;26784;-61
2022/09/16 11:08:21;;;;;;;72.10;15.82;;;;;;;;;;613445;231;26608;-63
2022/09/16 11:10:52;;;;;;;128.98;24.23;;;;;;;;;;617799;231;26552;-61
2022/09/16 11:13:35;;;;;;;155.90;29.25;;;;;;;;;;616236;231;26812;-62
2022/09/16 11:16:20;;;;;;;93.30;21.70;;;;;;;;;;618585;231;26608;-61
2022/09/16 11:18:49;;;;;;;76.55;16.67;;;;;;;;;;614362;231;26628;-60
2022/09/16 11:21:24;;;;;;;50.58;13.57;;;;;;;;;;613419;230;27039;-61
2022/09/16 11:24:08;;;;;;;46.42;9.23;;;;;;;;;;613655;230;27349;-60
2022/09/16 11:26:48;;;;;;;34.38;8.32;;;;;;;;;;609190;233;26639;-61
2022/09/16 11:29:16;;;;;;;31.33;7.97;;;;;;;;;;617023;231;26672;-60
2022/09/16 11:32:00;;;;;;;25.00;6.97;;;;;;;;;;617773;231;26595;-61
2022/09/16 11:34:30;;;;;;;28.00;7.70;;;;;;;;;;604560;231;26606;-60
2022/09/16 11:36:59;;;;;;;26.62;7.65;;;;;;;;;;623232;230;26593;-60
2022/09/16 11:39:33;;;;;;;28.30;8.45;;;;;;;;;;616115;231;26557;-60
2022/09/16 11:42:17;;;;;;;28.20;8.32;;;;;;;;;;612521;231;26612;-60
2022/09/16 11:44:52;;;;;;;31.85;9.20;;;;;;;;;;615533;231;26613;-60
2022/09/16 11:47:20;;;;;;;27.23;7.10;;;;;;;;;;613477;233;26552;-60
2022/09/16 11:50:05;;;;;;;28.42;7.93;;;;;;;;;;612951;231;26834;-60
2022/09/16 11:52:40;;;;;;;19.73;6.00;;;;;;;;;;614225;231;26827;-60
2022/09/16 11:55:20;;;;;;;15.43;5.30;;;;;;;;;;622351;230;26595;-60
2022/09/16 11:57:49;;;;;;;14.32;4.82;;;;;;;;;;615205;230;26585;-60
2022/09/16 12:00:18;;;;;;;10.57;3.30;;;;;;;;;;617225;231;26783;-60
2022/09/16 12:02:53;;;;;;;11.15;3.80;;;;;;;;;;617704;229;26663;-60
2022/09/16 12:05:22;;;;;;;13.07;3.80;;;;;;;;;;615773;230;26913;-60
2022/09/16 12:07:56;;;;;;;11.25;3.87;;;;;;;;;;615197;230;26848;-60
2022/09/16 12:10:26;;;;;;;7.00;2.78;;;;;;;;;;615894;230;26563;-59
2022/09/16 12:12:56;;;;;;;6.80;2.70;;;;;;;;;;613372;233;26643;-60
2022/09/16 12:15:25;;;;;;;9.98;2.53;;;;;;;;;;613451;230;26630;-60
2022/09/16 12:17:54;;;;;;;6.72;2.55;;;;;;;;;;618488;230;26627;-60
2022/09/16 12:20:23;;;;;;;4.82;2.10;;;;;;;;;;619468;230;26839;-59
2022/09/16 12:22:58;;;;;;;4.10;1.80;;;;;;;;;;614396;233;26658;-60
2022/09/16 12:25:28;;;;;;;4.10;1.73;;;;;;;;;;618320;230;26542;-59
2022/09/16 12:28:00;;;;;;;6.55;1.73;;;;;;;;;;620912;230;26617;-59
2022/09/16 12:30:29;;;;;;;4.72;1.87;;;;;;;;;;614503;231;26568;-59
2022/09/16 12:33:16;;;;;;;5.93;1.95;;;;;;;;;;618845;230;26633;-59
2022/09/16 12:35:44;;;;;;;4.37;1.48;;;;;;;;;;618582;230;27286;-60
2022/09/16 12:38:14;;;;;;;4.35;1.33;;;;;;;;;;618342;227;26560;-59
2022/09/16 12:40:49;;;;;;;2.15;1.42;;;;;;;;;;613077;231;26810;-60
2022/09/16 12:43:21;;;;;;;4.40;1.70;;;;;;;;;;614357;234;26591;-59
2022/09/16 12:45:52;;;;;;;3.85;1.33;;;;;;;;;;612419;234;26818;-59
2022/09/16 12:48:24;;;;;;;3.12;1.40;;;;;;;;;;615323;231;26615;-59
2022/09/16 12:51:08;;;;;;;3.45;1.60;;;;;;;;;;621503;231;26630;-60
2022/09/16 12:53:49;;;;;;;2.92;1.60;;;;;;;;;;609278;230;26625;-60
2022/09/16 12:56:19;;;;;;;3.12;1.37;;;;;;;;;;613008;234;26529;-60
2022/09/16 12:58:48;;;;;;;2.55;1.30;;;;;;;;;;612911;234;26593;-60
2022/09/16 13:01:21;;;;;;;4.65;1.60;;;;;;;;;;617312;231;26803;-60
2022/09/16 13:03:50;;;;;;;3.30;1.40;;;;;;;;;;615440;231;26684;-60
2022/09/16 13:06:22;;;;;;;4.03;1.48;;;;;;;;;;623478;231;26812;-59
2022/09/16 13:08:51;;;;;;;2.58;1.35;;;;;;;;;;618473;231;27097;-60
2022/09/16 13:11:21;;;;;;;3.10;1.35;;;;;;;;;;615635;231;26590;-60
2022/09/16 13:13:50;;;;;;;2.67;1.60;;;;;;;;;;614978;231;26583;-60
2022/09/16 13:16:35;;;;;;;2.20;1.33;;;;;;;;;;623322;230;26591;-60
2022/09/16 13:19:23;;;;;;;1.98;1.20;;;;;;;;;;617268;231;26591;-60
2022/09/16 13:21:55;;;;;;;4.40;1.10;;;;;;;;;;613680;228;26897;-57
2022/09/16 13:24:30;;;;;;;4.12;1.42;;;;;;;;;;617369;230;26858;-60
2022/09/16 13:26:59;;;;;;;2.80;1.30;;;;;;;;;;615918;230;26620;-61
2022/09/16 13:29:42;;;;;;;4.82;1.45;;;;;;;;;;616470;231;26571;-60
2022/09/16 13:32:16;;;;;;;4.03;1.35;;;;;;;;;;614659;231;26622;-60
2022/09/16 13:34:45;;;;;;;5.12;1.30;;;;;;;;;;613398;233;26592;-60
2022/09/16 13:37:14;;;;;;;2.58;1.27;;;;;;;;;;613594;233;26580;-60
2022/09/16 13:39:43;;;;;;;2.75;1.20;;;;;;;;;;615277;231;26579;-60
2022/09/16 13:42:17;;;;;;;1.75;1.00;;;;;;;;;;613518;231;26613;-60
2022/09/16 13:44:46;;;;;;;3.83;1.27;;;;;;;;;;615187;231;26867;-60
2022/09/16 13:47:15;;;;;;;4.22;1.15;;;;;;;;;;614919;230;26561;-60
2022/09/16 13:49:44;;;;;;;2.60;1.45;;;;;;;;;;617521;231;26563;-60
2022/09/16 13:52:13;;;;;;;6.35;1.35;;;;;;;;;;613033;231;26582;-60
2022/09/16 13:54:42;;;;;;;3.28;1.20;;;;;;;;;;613860;234;26573;-60
2022/09/16 13:57:13;;;;;;;3.47;1.20;;;;;;;;;;612907;234;26798;-60
2022/09/16 13:59:43;;;;;;;3.83;1.20;;;;;;;;;;613013;231;26619;-62
2022/09/16 14:02:18;;;;;;;15.98;2.35;;;;;;;;;;612978;234;26632;-67
2022/09/16 14:05:02;;;;;;;5.05;1.33;;;;;;;;;;617547;231;26616;-69
2022/09/16 14:07:47;;;;;;;5.05;1.25;;;;;;;;;;613005;231;26552;-68
2022/09/16 14:10:22;;;;;;;1.77;1.10;;;;;;;;;;612239;231;26962;-68
2022/09/16 14:12:56;;;;;;;5.40;1.55;;;;;;;;;;614064;234;26600;-69
2022/09/16 14:15:24;;;;;;;4.78;1.35;;;;;;;;;;613895;231;26812;-68
2022/09/16 14:17:53;;;;;;;5.28;1.50;;;;;;;;;;620315;231;26573;-68
2022/09/16 14:20:23;;;;;;;2.70;1.27;;;;;;;;;;613795;231;26847;-68
2022/09/16 14:22:58;;;;;;;3.62;1.40;;;;;;;;;;614341;231;26588;-68
2022/09/16 14:25:26;;;;;;;2.50;1.37;;;;;;;;;;613427;232;26575;-68
2022/09/16 14:28:01;;;;;;;3.15;1.30;;;;;;;;;;615999;233;26540;-68
2022/09/16 14:30:30;;;;;;;2.47;1.20;;;;;;;;;;614105;231;26555;-65
2022/09/16 14:32:59;;;;;;;4.43;1.40;;;;;;;;;;615618;231;26828;-68
2022/09/16 14:35:28;;;;;;;6.65;1.70;;;;;;;;;;616452;230;26631;-65
2022/09/16 14:37:57;;;;;;;3.62;1.25;;;;;;;;;;619131;230;26839;-66
2022/09/16 14:40:25;;;;;;;2.62;1.25;;;;;;;;;;620162;230;26612;-67
2022/09/16 14:42:54;;;;;;;3.67;1.15;;;;;;;;;;617580;231;26579;-68
2022/09/16 14:45:23;;;;;;;4.20;1.23;;;;;;;;;;615260;230;26572;-67
2022/09/16 14:47:52;;;;;;;3.83;1.70;;;;;;;;;;615054;231;26840;-67
2022/09/16 14:50:22;;;;;;;3.53;1.30;;;;;;;;;;614977;231;26579;-67
2022/09/16 14:53:08;;;;;;;2.53;1.70;;;;;;;;;;616677;230;26601;-67
2022/09/16 14:55:38;;;;;;;5.18;1.50;;;;;;;;;;614877;230;26574;-67
2022/09/16 14:58:04;;;;;;;3.12;1.42;;;;;;;;;;615388;231;26805;-65
2022/09/16 15:00:34;;;;;;;1.90;1.20;;;;;;;;;;613899;231;26541;-66